Language selection

My Weather Profile Weather Topics  | 

Chaleur - Miscou - western half: Past 24 Hour Conditions

 

St. Anthony Airport

02:30 AM NDT 19 September 2021
Disclaimer

This table is a summary of hourly weather conditions for the past 24 hours.
Please note that these observations might not always be representative of weather conditions over their associated marine area.

Date / Time
(NDT)
Wind(knots) Conditions Visibility(km) Pressure(kPa) Air tempC) Relative humidity(%) Dew pointC)
19 September 2021
2:30 W 7 Clear 16 101.3 11 85 8
1:30 W 9 Clear 16 101.3 11 90 10
0:30 W 10 Clear 16 101.2 13 88 11
18 September 2021
23:30 WSW 14 Clear 16 101.1 14 89 12
22:30 WSW 14 gust 19 Partly Cloudy 16 101.0 14 91 12
21:30 WSW 18 gust 25 Cloudy 16 100.9 15 91 13
20:30 W 16 gust 24 Cloudy 16 100.8 16 90 14
19:30 SW 19 gust 30 Cloudy 16 100.6 16 90 15
18:30 SSW 20 gust 30 Cloudy 16 100.6 16 90 15
17:30 SW 24 gust 32 Cloudy 16 100.6 17 90 15
16:30 SW 25 gust 37 Cloudy 16 100.7 17 87 15
15:30 SSW 24 gust 33 Cloudy 16 100.7 17 86 15
14:30 SW 21 gust 30 Cloudy 16 100.9 17 86 15
13:30 SW 25 gust 34 Cloudy 16 100.9 17 86 15
12:30 SW 21 gust 31 Cloudy 16 101.0 17 87 15
11:30 SW 21 gust 27 Cloudy 16 101.1 17 85 14
10:30 SW 20 gust 30 Cloudy 16 101.2 16 88 14
9:30 SW 18 gust 25 Cloudy 16 101.2 15 90 14
8:30 SW 22 gust 28 Mist 8 101.3 15 95 14
7:30 WSW 21 gust 30 Mist 8 101.3 15 94 14
6:30 WSW 27 gust 38 Cloudy 16 101.3 16 87 14
5:30 WSW 19 gust 29 Mostly Cloudy 16 101.4 16 87 13
4:30 WSW 28 gust 34 Clear 16 101.4 15 84 12
3:30 SW 20 gust 28 Clear 16 101.5 14 80 11
2:30 SW 16 gust 26 Clear 16 101.6 14 76 10

Zoom-in to make a selection

Map of Atlantic - Newfoundland marine weather areas Banquereau - 44139 East Chedabucto Bay - 44488 West Chedabucto Bay - 44489 Blanc-Sablon Airport Cap Whittle Chevery Natashquan Airport Heath Point Îles de la Madeleine Airport Miscou Island Eskasoni (First Nations) Grand Étang Ingonish Beach North Mountain St.Paul Island J.A. Douglas McCurdy Sydney Airport Charlottetown Airport East Point North Cape Argentia Bonavista Burgeo Cape Race Corner Brook Daniel's Harbour Englee Ferolle Point La Scie Port aux Basques Rocky Harbour Sagona Island St. Anthony Airport St. John's Int'l Airport St. Lawrence Stephenville Airport Twillingate Winterland Branch Hill Wreckhouse Grates Cove Pool's Island Marticot Island Long Pond Cartwright Airport Mary's Harbour
Legend:
buoy Buoy
land station Land Station

Atlantic - Newfoundland Area

Another Region

What we are doing

Date modified: